createdAt,value
2023-04-16T00:01:44.628Z,100639.85
2023-04-16T00:04:13.640Z,100642.43
2023-04-16T00:06:43.020Z,100638.33
2023-04-16T00:09:12.073Z,100641.29
2023-04-16T00:11:41.250Z,100646.10
2023-04-16T00:14:10.550Z,100643.70
2023-04-16T00:16:39.608Z,100646.88
2023-04-16T00:19:08.959Z,100643.27
2023-04-16T00:21:38.707Z,100644.55
2023-04-16T00:24:07.717Z,100643.41
2023-04-16T00:26:36.606Z,100648.15
2023-04-16T00:29:05.598Z,100649.97
2023-04-16T00:31:34.680Z,100646.42
2023-04-16T00:34:04.787Z,100646.96
2023-04-16T00:36:33.702Z,100645.81
2023-04-16T00:39:02.576Z,100647.60
2023-04-16T00:41:32.009Z,100648.27
2023-04-16T00:44:00.958Z,100650.03
2023-04-16T00:46:30.246Z,100648.31
2023-04-16T00:49:00.958Z,100648.98
2023-04-16T00:51:30.028Z,100649.69
2023-04-16T00:53:59.316Z,100655.61
2023-04-16T00:56:28.634Z,100653.73
2023-04-16T00:58:57.475Z,100654.70
2023-04-16T01:01:26.668Z,100652.89
2023-04-16T01:03:55.700Z,100648.14
2023-04-16T01:06:24.785Z,100650.36
2023-04-16T01:08:53.676Z,100651.98
2023-04-16T01:11:22.639Z,100653.80
2023-04-16T01:13:51.498Z,100652.52
2023-04-16T01:16:21.365Z,100655.58
2023-04-16T01:18:50.375Z,100656.59
2023-04-16T01:21:19.938Z,100657.80
2023-04-16T01:23:48.873Z,100659.88
2023-04-16T01:26:17.870Z,100660.39
2023-04-16T01:28:47.263Z,100660.98
2023-04-16T01:31:16.033Z,100660.23
2023-04-16T01:34:20.737Z,100652.23
2023-04-16T01:36:49.684Z,100649.15
2023-04-16T01:39:19.958Z,100650.56
2023-04-16T01:41:48.931Z,100651.39
2023-04-16T01:44:18.186Z,100654.72
2023-04-16T01:46:48.367Z,100654.02
2023-04-16T01:49:17.330Z,100652.30
2023-04-16T01:51:46.179Z,100655.20
2023-04-16T01:54:15.124Z,100657.48
2023-04-16T01:56:44.196Z,100655.98
2023-04-16T01:59:13.053Z,100657.21
2023-04-16T02:01:44.928Z,100656.90
2023-04-16T02:04:13.912Z,100658.17
2023-04-16T02:06:42.803Z,100660.47
2023-04-16T02:09:11.863Z,100660.80
2023-04-16T02:11:41.746Z,100662.62
2023-04-16T02:14:11.572Z,100664.82
2023-04-16T02:16:40.904Z,100662.34
2023-04-16T02:19:32.798Z,100661.09
2023-04-16T02:22:04.633Z,100667.14
2023-04-16T02:24:33.570Z,100667.92
2023-04-16T02:27:07.157Z,100666.68
2023-04-16T02:29:37.166Z,100671.19
2023-04-16T02:32:11.370Z,100670.65
2023-04-16T02:34:43.580Z,100674.85
2023-04-16T02:37:14.777Z,100676.96
2023-04-16T02:39:44.365Z,100679.90
2023-04-16T02:42:13.332Z,100679.93
2023-04-16T02:44:42.445Z,100677.78
2023-04-16T02:47:11.715Z,100678.11
2023-04-16T02:49:41.127Z,100678.99
2023-04-16T02:52:10.135Z,100678.12
2023-04-16T02:54:39.014Z,100685.02
2023-04-16T02:57:08.079Z,100686.22
2023-04-16T02:59:37.045Z,100688.00
2023-04-16T03:02:06.019Z,100684.53
2023-04-16T03:04:35.073Z,100687.85
2023-04-16T03:07:03.920Z,100689.46
2023-04-16T03:09:33.522Z,100685.50
2023-04-16T03:12:03.025Z,100691.84
2023-04-16T03:14:32.022Z,100695.90
2023-04-16T03:17:00.955Z,100699.84
2023-04-16T03:19:30.050Z,100699.94
2023-04-16T03:21:58.899Z,100708.20
2023-04-16T03:24:28.757Z,100706.59
2023-04-16T03:26:58.539Z,100710.96
2023-04-16T03:29:27.697Z,100708.08
2023-04-16T03:31:56.718Z,100710.65
2023-04-16T03:34:25.788Z,100713.79
2023-04-16T03:36:54.636Z,100716.59
2023-04-16T03:39:23.642Z,100718.23
2023-04-16T03:41:53.048Z,100716.76
2023-04-16T03:44:22.208Z,100719.05
2023-04-16T03:46:51.267Z,100719.77
2023-04-16T03:49:20.268Z,100716.70
2023-04-16T03:51:49.131Z,100718.77
2023-04-16T03:54:18.720Z,100721.99
2023-04-16T03:56:52.557Z,100727.10
2023-04-16T03:59:21.661Z,100726.51
2023-04-16T04:01:51.141Z,100730.10
2023-04-16T04:04:20.298Z,100733.13
2023-04-16T04:06:49.205Z,100735.46
2023-04-16T04:09:18.292Z,100734.79
2023-04-16T04:11:47.742Z,100735.83
2023-04-16T04:14:16.472Z,100737.30
2023-04-16T04:16:46.278Z,100736.12
2023-04-16T04:19:16.472Z,100732.24
2023-04-16T04:21:45.173Z,100734.58
2023-04-16T04:24:14.012Z,100732.06
2023-04-16T04:26:42.761Z,100733.15
2023-04-16T04:29:12.060Z,100734.45
2023-04-16T04:31:41.338Z,100735.73
2023-04-16T04:34:10.481Z,100733.05
2023-04-16T04:36:39.099Z,100729.65
2023-04-16T04:39:07.910Z,100732.23
2023-04-16T04:41:37.127Z,100735.33
2023-04-16T04:44:05.831Z,100736.30
2023-04-16T04:46:34.579Z,100734.58
2023-04-16T04:49:04.336Z,100740.23
2023-04-16T04:51:33.597Z,100738.40
2023-04-16T04:54:02.486Z,100740.80
2023-04-16T04:56:31.312Z,100741.40
2023-04-16T04:58:59.955Z,100745.07
2023-04-16T05:01:28.735Z,100742.33
2023-04-16T05:03:57.439Z,100744.55
2023-04-16T05:06:29.444Z,100746.39
2023-04-16T05:08:58.368Z,100747.00
2023-04-16T05:11:27.030Z,100751.04
2023-04-16T05:13:56.315Z,100746.27
2023-04-16T05:16:25.073Z,100751.30
2023-04-16T05:18:53.955Z,100746.63
2023-04-16T05:21:23.259Z,100748.20
2023-04-16T05:23:51.890Z,100747.96
2023-04-16T05:26:21.216Z,100746.46
2023-04-16T05:28:49.839Z,100751.05
2023-04-16T05:31:19.119Z,100755.47
2023-04-16T05:33:47.983Z,100755.80
2023-04-16T05:36:18.146Z,100753.67
2023-04-16T05:38:46.894Z,100754.39
2023-04-16T05:41:15.635Z,100753.17
2023-04-16T05:43:44.343Z,100755.92
2023-04-16T05:46:13.318Z,100755.87
2023-04-16T05:48:42.029Z,100756.33
2023-04-16T05:51:10.730Z,100761.44
2023-04-16T05:53:39.346Z,100759.05
2023-04-16T05:56:08.277Z,100764.44
2023-04-16T05:58:37.327Z,100766.92
2023-04-16T06:01:07.878Z,100767.28
2023-04-16T06:03:37.314Z,100769.37
2023-04-16T06:06:06.418Z,100770.39
2023-04-16T06:08:35.613Z,100774.75
2023-04-16T06:11:04.258Z,100774.84
2023-04-16T06:13:33.163Z,100783.65
2023-04-16T06:16:01.917Z,100786.22
2023-04-16T06:18:31.103Z,100785.80
2023-04-16T06:21:00.249Z,100789.77
2023-04-16T06:23:28.969Z,100793.30
2023-04-16T06:25:57.694Z,100792.11
2023-04-16T06:28:26.376Z,100797.69
2023-04-16T06:30:55.154Z,100798.36
2023-04-16T06:33:24.274Z,100802.02
2023-04-16T06:35:53.167Z,100797.46
2023-04-16T06:38:21.723Z,100804.55
2023-04-16T06:40:50.734Z,100806.64
2023-04-16T06:43:19.433Z,100814.79
2023-04-16T06:45:48.070Z,100812.59
2023-04-16T06:48:17.709Z,100814.80
2023-04-16T06:50:46.395Z,100817.71
2023-04-16T06:53:15.260Z,100818.60
2023-04-16T06:55:44.081Z,100818.46
2023-04-16T06:58:13.369Z,100824.80
2023-04-16T07:00:42.523Z,100826.88
2023-04-16T07:03:11.304Z,100830.36
2023-04-16T07:05:40.901Z,100829.13
2023-04-16T07:08:09.663Z,100829.89
2023-04-16T07:10:38.883Z,100835.14
2023-04-16T07:13:07.692Z,100839.11
2023-04-16T07:15:36.631Z,100835.34
2023-04-16T07:18:05.466Z,100837.91
2023-04-16T07:20:34.243Z,100836.94
2023-04-16T07:23:03.142Z,100836.96
2023-04-16T07:25:31.932Z,100841.73
2023-04-16T07:28:00.650Z,100836.14
2023-04-16T07:30:34.558Z,100838.86
2023-04-16T07:33:03.821Z,100835.55
2023-04-16T07:35:32.582Z,100839.41
2023-04-16T07:38:01.386Z,100839.01
2023-04-16T07:40:30.135Z,100836.34
2023-04-16T07:42:58.922Z,100832.86
2023-04-16T07:45:27.637Z,100837.48
2023-04-16T07:47:57.085Z,100836.78
2023-04-16T07:50:25.946Z,100834.41
2023-04-16T07:52:54.621Z,100831.70
2023-04-16T07:55:23.349Z,100838.61
2023-04-16T07:57:52.850Z,100837.67
2023-04-16T08:00:21.780Z,100841.48
2023-04-16T08:02:51.197Z,100845.47
2023-04-16T08:05:20.432Z,100850.11
2023-04-16T08:07:49.661Z,100850.61
2023-04-16T08:10:18.783Z,100850.45
2023-04-16T08:12:48.244Z,100852.23
2023-04-16T08:15:17.347Z,100850.14
2023-04-16T08:17:46.384Z,100850.67
2023-04-16T08:20:18.552Z,100850.79
2023-04-16T08:22:48.835Z,100853.29
2023-04-16T08:25:17.940Z,100850.02
2023-04-16T08:27:47.754Z,100844.95
2023-04-16T08:30:17.500Z,100843.32
2023-04-16T08:32:48.681Z,100843.30
2023-04-16T08:35:18.851Z,100847.62
2023-04-16T08:37:47.551Z,100843.66
2023-04-16T08:40:16.245Z,100842.77
2023-04-16T08:42:58.840Z,100843.09
2023-04-16T08:45:27.781Z,100840.48
2023-04-16T08:47:56.716Z,100840.80
2023-04-16T08:50:25.719Z,100840.16
2023-04-16T08:52:58.532Z,100845.59
2023-04-16T08:55:32.306Z,100845.34
2023-04-16T08:58:01.901Z,100844.89
2023-04-16T09:00:31.194Z,100844.59
2023-04-16T09:03:00.332Z,100842.74
2023-04-16T09:05:29.333Z,100839.59
2023-04-16T09:07:58.229Z,100841.63
2023-04-16T09:10:27.489Z,100845.02
2023-04-16T09:12:56.519Z,100842.77
2023-04-16T09:15:28.453Z,100841.30
2023-04-16T09:17:58.164Z,100841.67
2023-04-16T09:20:27.051Z,100843.30
2023-04-16T09:22:57.546Z,100847.46
2023-04-16T09:25:27.088Z,100845.92
2023-04-16T09:27:56.151Z,100844.23
2023-04-16T09:30:25.996Z,100842.36
2023-04-16T09:33:13.888Z,100840.13
2023-04-16T09:35:49.558Z,100842.46
2023-04-16T09:38:19.272Z,100845.29
2023-04-16T09:40:47.889Z,100845.23
2023-04-16T09:43:17.836Z,100848.67
2023-04-16T09:45:52.904Z,100851.70
2023-04-16T09:48:29.658Z,100852.27
2023-04-16T09:50:59.043Z,100856.14
2023-04-16T09:53:28.629Z,100859.30
2023-04-16T09:56:01.228Z,100863.71
2023-04-16T09:58:30.378Z,100867.52
2023-04-16T10:01:02.872Z,100866.19
2023-04-16T10:03:32.505Z,100871.96
2023-04-16T10:06:07.493Z,100872.35
2023-04-16T10:08:38.047Z,100877.23
2023-04-16T10:11:07.048Z,100878.27
2023-04-16T10:13:36.668Z,100877.75
2023-04-16T10:16:05.621Z,100877.36
2023-04-16T10:18:35.790Z,100881.05
2023-04-16T10:21:04.975Z,100884.23
2023-04-16T10:23:36.091Z,100886.81
2023-04-16T10:26:05.208Z,100886.20
2023-04-16T10:28:36.108Z,100890.21
2023-04-16T10:31:06.114Z,100892.02
2023-04-16T10:33:36.255Z,100891.95
2023-04-16T10:36:17.940Z,100890.33
2023-04-16T10:38:47.422Z,100892.56
2023-04-16T10:41:16.526Z,100896.16
2023-04-16T10:43:45.765Z,100900.02
2023-04-16T10:46:27.803Z,100902.56
2023-04-16T10:48:56.884Z,100900.84
2023-04-16T10:51:26.506Z,100901.60
2023-04-16T10:53:56.583Z,100902.17
2023-04-16T10:56:26.727Z,100902.64
2023-04-16T10:58:56.494Z,100897.83
2023-04-16T11:01:32.178Z,100900.84
2023-04-16T11:04:02.775Z,100902.41
2023-04-16T11:06:32.337Z,100901.56
2023-04-16T11:09:01.421Z,100901.39
2023-04-16T11:11:36.245Z,100907.48
2023-04-16T11:14:05.045Z,100901.13
2023-04-16T11:16:34.449Z,100905.08
2023-04-16T11:19:03.226Z,100902.30
2023-04-16T11:21:32.993Z,100904.05
2023-04-16T11:24:01.718Z,100903.20
2023-04-16T11:26:33.681Z,100903.99
2023-04-16T11:29:03.148Z,100901.70
2023-04-16T11:31:31.996Z,100901.23
2023-04-16T11:34:01.531Z,100898.49
2023-04-16T11:36:42.961Z,100902.57
2023-04-16T11:39:12.011Z,100904.73
2023-04-16T11:41:45.324Z,100905.19
2023-04-16T11:44:21.505Z,100907.33
2023-04-16T11:46:51.071Z,100910.39
2023-04-16T11:49:29.732Z,100911.37
2023-04-16T11:51:58.678Z,100912.86
2023-04-16T11:54:28.041Z,100914.37
2023-04-16T11:56:56.888Z,100910.75
2023-04-16T11:59:25.952Z,100906.90
2023-04-16T12:01:57.595Z,100906.02
2023-04-16T12:04:27.061Z,100904.91
2023-04-16T12:07:12.210Z,100905.53
2023-04-16T12:09:42.744Z,100902.27
2023-04-16T12:12:27.592Z,100904.89
2023-04-16T12:14:57.953Z,100904.77
2023-04-16T12:17:27.255Z,100902.81
2023-04-16T12:19:56.670Z,100900.11
2023-04-16T12:22:32.658Z,100898.50
2023-04-16T12:25:03.870Z,100898.77
2023-04-16T12:28:02.565Z,100898.84
2023-04-16T12:30:31.710Z,100897.58
2023-04-16T12:33:17.046Z,100899.61
2023-04-16T12:35:46.275Z,100896.20
2023-04-16T12:38:17.739Z,100895.31
2023-04-16T12:40:46.522Z,100894.03
2023-04-16T12:43:15.166Z,100894.17
2023-04-16T12:45:44.581Z,100894.11
2023-04-16T12:48:13.732Z,100891.46
2023-04-16T12:50:44.749Z,100891.13
2023-04-16T12:53:13.459Z,100892.35
2023-04-16T12:55:42.198Z,100894.36
2023-04-16T12:58:12.617Z,100889.83
2023-04-16T13:00:41.537Z,100886.27
2023-04-16T13:03:10.696Z,100891.66
2023-04-16T13:05:40.240Z,100888.86
2023-04-16T13:08:09.634Z,100887.67
2023-04-16T13:10:38.596Z,100894.36
2023-04-16T13:13:07.632Z,100892.70
2023-04-16T13:15:36.435Z,100889.76
2023-04-16T13:18:05.547Z,100891.71
2023-04-16T13:20:34.962Z,100888.00
2023-04-16T13:23:05.277Z,100890.08
2023-04-16T13:25:34.587Z,100891.55
2023-04-16T13:28:03.322Z,100889.53
2023-04-16T13:30:33.778Z,100894.80
2023-04-16T13:33:02.973Z,100894.27
2023-04-16T13:35:31.657Z,100895.28
2023-04-16T13:38:00.360Z,100889.26
2023-04-16T13:40:29.008Z,100890.45
2023-04-16T13:42:58.007Z,100887.98
2023-04-16T13:45:28.277Z,100889.89
2023-04-16T13:47:57.389Z,100893.42
2023-04-16T13:50:26.158Z,100898.12
2023-04-16T13:52:54.843Z,100895.70
2023-04-16T13:55:23.658Z,100897.89
2023-04-16T13:57:53.589Z,100896.58
2023-04-16T14:00:22.312Z,100892.77
2023-04-16T14:02:51.233Z,100894.16
2023-04-16T14:05:20.294Z,100898.14
2023-04-16T14:07:49.341Z,100891.48
2023-04-16T14:10:18.115Z,100894.44
2023-04-16T14:12:48.140Z,100897.42
2023-04-16T14:15:17.195Z,100894.17
2023-04-16T14:17:46.115Z,100890.88
2023-04-16T14:20:15.145Z,100890.91
2023-04-16T14:22:44.603Z,100888.79
2023-04-16T14:25:13.254Z,100888.62
2023-04-16T14:27:43.032Z,100887.43
2023-04-16T14:30:11.852Z,100887.91
2023-04-16T14:32:42.241Z,100890.98
2023-04-16T14:35:11.186Z,100888.00
2023-04-16T14:37:41.286Z,100886.21
2023-04-16T14:40:11.277Z,100890.69
2023-04-16T14:42:40.878Z,100888.75
2023-04-16T14:45:09.976Z,100888.52
2023-04-16T14:47:46.144Z,100887.17
2023-04-16T14:50:16.013Z,100891.23
2023-04-16T14:52:44.855Z,100890.05
2023-04-16T14:55:13.715Z,100894.38
2023-04-16T14:57:42.828Z,100894.18
2023-04-16T15:00:12.227Z,100893.94
2023-04-16T15:02:41.471Z,100892.48
2023-04-16T15:05:10.860Z,100891.59
2023-04-16T15:07:39.672Z,100892.75
2023-04-16T15:10:09.314Z,100890.45
2023-04-16T15:12:38.673Z,100889.61
2023-04-16T15:15:08.088Z,100887.84
2023-04-16T15:17:38.817Z,100885.77
2023-04-16T15:20:10.834Z,100885.38
2023-04-16T15:22:40.125Z,100883.35
2023-04-16T15:25:09.178Z,100879.52
2023-04-16T15:27:38.055Z,100881.40
2023-04-16T15:30:07.672Z,100878.88
2023-04-16T15:32:36.380Z,100876.89
2023-04-16T15:35:09.836Z,100883.34
2023-04-16T15:37:40.091Z,100879.56
2023-04-16T15:40:08.998Z,100881.65
2023-04-16T15:42:39.214Z,100884.44
2023-04-16T15:45:08.056Z,100885.80
2023-04-16T15:47:39.528Z,100886.68
2023-04-16T15:50:10.358Z,100891.81
2023-04-16T15:52:40.618Z,100885.81
2023-04-16T15:55:09.755Z,100886.83
2023-04-16T15:57:38.786Z,100887.44
2023-04-16T16:00:14.185Z,100887.83
2023-04-16T16:02:44.148Z,100888.15
2023-04-16T16:05:16.280Z,100890.13
2023-04-16T16:07:46.784Z,100890.55
2023-04-16T16:10:16.164Z,100892.50
2023-04-16T16:12:44.895Z,100894.13
2023-04-16T16:15:13.680Z,100898.84
2023-04-16T16:17:42.751Z,100899.73
2023-04-16T16:20:13.206Z,100899.95
2023-04-16T16:22:45.632Z,100901.71
2023-04-16T16:25:14.724Z,100900.22
2023-04-16T16:27:44.098Z,100902.62
2023-04-16T16:30:13.157Z,100902.55
2023-04-16T16:32:44.132Z,100904.06
2023-04-16T16:35:13.001Z,100902.70
2023-04-16T16:37:41.968Z,100905.00
2023-04-16T16:40:10.983Z,100902.30
2023-04-16T16:42:40.370Z,100906.13
2023-04-16T16:45:09.583Z,100898.69
2023-04-16T16:47:38.415Z,100899.66
2023-04-16T16:50:07.584Z,100900.52
2023-04-16T16:52:37.374Z,100902.05
2023-04-16T16:55:09.077Z,100906.28
2023-04-16T16:57:39.012Z,100909.34
2023-04-16T17:00:15.301Z,100910.00
2023-04-16T17:02:44.538Z,100906.48
2023-04-16T17:05:13.362Z,100907.13
2023-04-16T17:07:42.480Z,100915.20
2023-04-16T17:10:13.436Z,100915.40
2023-04-16T17:12:42.888Z,100909.87
2023-04-16T17:15:11.819Z,100916.14
2023-04-16T17:17:41.166Z,100923.45
2023-04-16T17:20:11.179Z,100923.52
2023-04-16T17:22:40.723Z,100928.84
2023-04-16T17:25:09.598Z,100925.77
2023-04-16T17:27:38.441Z,100934.66
2023-04-16T17:30:08.555Z,100927.30
2023-04-16T17:32:37.567Z,100921.33
2023-04-16T17:35:07.263Z,100929.56
2023-04-16T17:37:36.364Z,100933.55
2023-04-16T17:40:07.804Z,100931.34
2023-04-16T17:42:37.038Z,100936.95
2023-04-16T17:45:06.162Z,100936.86
2023-04-16T17:47:39.116Z,100936.84
2023-04-16T17:50:08.666Z,100938.97
2023-04-16T17:52:40.453Z,100939.50
2023-04-16T17:55:09.322Z,100942.04
2023-04-16T17:57:38.741Z,100943.23
2023-04-16T18:00:11.471Z,100944.64
2023-04-16T18:02:43.824Z,100947.11
2023-04-16T18:05:12.743Z,100950.45
2023-04-16T18:07:50.107Z,100948.77
2023-04-16T18:10:18.870Z,100950.15
2023-04-16T18:12:47.543Z,100950.48
2023-04-16T18:15:16.608Z,100951.86
2023-04-16T18:17:45.277Z,100953.19
2023-04-16T18:22:36.304Z,100952.73
2023-04-16T18:25:04.936Z,100953.09
2023-04-16T18:27:32.531Z,100955.95
2023-04-16T18:30:00.094Z,100956.30
2023-04-16T18:32:30.889Z,100955.71
2023-04-16T18:34:58.810Z,100953.63
2023-04-16T18:37:26.758Z,100949.69
2023-04-16T18:39:55.547Z,100949.33
2023-04-16T18:42:27.768Z,100946.58
2023-04-16T18:44:55.076Z,100948.77
2023-04-16T18:47:22.433Z,100951.66
2023-04-16T18:49:49.633Z,100951.28
2023-04-16T18:52:17.003Z,100949.96
2023-04-16T18:54:44.327Z,100946.90
2023-04-16T18:57:11.708Z,100947.77
2023-04-16T18:59:38.974Z,100946.20
2023-04-16T19:02:06.861Z,100944.40
2023-04-16T19:04:34.452Z,100948.01
2023-04-16T19:07:01.853Z,100949.00
2023-04-16T19:09:29.210Z,100947.78
2023-04-16T19:11:57.110Z,100946.03
2023-04-16T19:14:24.368Z,100950.89
2023-04-16T19:16:52.199Z,100943.16
2023-04-16T19:19:19.764Z,100946.30
2023-04-16T19:21:47.216Z,100941.86
2023-04-16T19:24:14.763Z,100947.27
2023-04-16T19:26:42.035Z,100945.25
2023-04-16T19:29:09.708Z,100945.88
2023-04-16T19:31:37.217Z,100939.42
2023-04-16T19:34:04.662Z,100943.61
2023-04-16T19:36:32.189Z,100941.46
2023-04-16T19:38:59.419Z,100940.27
2023-04-16T19:41:26.636Z,100936.14
2023-04-16T19:43:54.235Z,100934.66
2023-04-16T19:46:21.743Z,100929.40
2023-04-16T19:48:49.483Z,100929.55
2023-04-16T19:51:16.759Z,100933.21
2023-04-16T19:53:46.180Z,100937.27
2023-04-16T19:56:13.658Z,100933.73
2023-04-16T19:58:41.307Z,100936.54
2023-04-16T20:01:09.967Z,100938.90
2023-04-16T20:03:40.676Z,100936.91
2023-04-16T20:06:08.216Z,100938.79
2023-04-16T20:08:35.766Z,100937.55
2023-04-16T20:11:04.156Z,100939.73
2023-04-16T20:13:31.750Z,100940.86
2023-04-16T20:16:00.857Z,100937.64
2023-04-16T20:18:28.651Z,100936.45
2023-04-16T20:20:56.329Z,100933.36
2023-04-16T20:23:24.126Z,100934.97
2023-04-16T20:25:52.211Z,100932.25
2023-04-16T20:28:21.322Z,100927.06
2023-04-16T20:30:50.573Z,100926.13
2023-04-16T20:33:18.944Z,100930.15
2023-04-16T20:35:46.863Z,100927.73
2023-04-16T20:38:14.434Z,100929.44
2023-04-16T20:40:44.458Z,100929.02
2023-04-16T20:43:13.923Z,100927.88
2023-04-16T20:45:45.606Z,100929.15
2023-04-16T20:48:13.133Z,100926.67
2023-04-16T20:50:40.587Z,100924.79
2023-04-16T20:53:08.133Z,100926.80
2023-04-16T20:55:36.541Z,100925.04
2023-04-16T20:58:03.955Z,100919.95
2023-04-16T21:00:31.806Z,100913.88
2023-04-16T21:02:59.530Z,100917.16
2023-04-16T21:05:29.895Z,100920.30
2023-04-16T21:07:57.551Z,100916.48
2023-04-16T21:10:25.243Z,100916.09
2023-04-16T21:12:53.687Z,100916.18
2023-04-16T21:15:21.150Z,100916.35
2023-04-16T21:17:48.938Z,100917.09
2023-04-16T21:20:16.608Z,100915.45
2023-04-16T21:22:44.400Z,100913.47
2023-04-16T21:25:12.120Z,100909.16
2023-04-16T21:27:40.866Z,100908.59
2023-04-16T21:30:09.016Z,100906.79
2023-04-16T21:32:38.899Z,100904.38
2023-04-16T21:35:06.738Z,100903.27
2023-04-16T21:37:34.209Z,100898.44
2023-04-16T21:40:02.216Z,100898.48
2023-04-16T21:42:31.241Z,100895.30
2023-04-16T21:44:58.716Z,100891.30
2023-04-16T21:47:26.160Z,100890.14
2023-04-16T21:49:53.892Z,100886.65
2023-04-16T21:52:21.604Z,100885.30
2023-04-16T21:54:49.016Z,100881.56
2023-04-16T21:57:16.488Z,100883.22
2023-04-16T21:59:44.200Z,100880.42
2023-04-16T22:02:11.857Z,100881.21
2023-04-16T22:04:39.862Z,100875.38
2023-04-16T22:07:11.575Z,100872.59
2023-04-16T22:09:40.694Z,100873.83
2023-04-16T22:12:11.872Z,100874.91
2023-04-16T22:14:43.955Z,100869.48
2023-04-16T22:17:14.869Z,100872.14
2023-04-16T22:19:44.304Z,100871.08
2023-04-16T22:22:11.978Z,100874.38
2023-04-16T22:24:39.655Z,100871.77
2023-04-16T22:27:07.225Z,100872.14
2023-04-16T22:29:35.154Z,100870.79
2023-04-16T22:32:02.740Z,100871.36
2023-04-16T22:34:30.956Z,100872.08
2023-04-16T22:36:58.703Z,100867.88
2023-04-16T22:39:28.431Z,100866.20
2023-04-16T22:41:55.839Z,100867.90
2023-04-16T22:44:23.317Z,100860.77
2023-04-16T22:46:51.094Z,100860.30
2023-04-16T22:49:19.125Z,100853.02
2023-04-16T22:51:46.636Z,100853.00
2023-04-16T22:54:14.197Z,100854.23
2023-04-16T22:56:41.844Z,100853.78
2023-04-16T22:59:09.939Z,100851.92
2023-04-16T23:01:38.951Z,100848.98
2023-04-16T23:04:06.607Z,100850.41
2023-04-16T23:06:34.255Z,100855.72
2023-04-16T23:09:02.032Z,100852.28
2023-04-16T23:11:29.742Z,100853.33
2023-04-16T23:13:58.472Z,100852.27
2023-04-16T23:16:27.109Z,100846.33
2023-04-16T23:18:54.863Z,100846.45
2023-04-16T23:21:22.683Z,100844.37
2023-04-16T23:23:50.286Z,100841.46
2023-04-16T23:26:18.024Z,100839.61
2023-04-16T23:28:45.583Z,100839.00
2023-04-16T23:31:13.204Z,100837.24
2023-04-16T23:33:40.865Z,100832.64
2023-04-16T23:36:08.963Z,100829.17
2023-04-16T23:38:37.130Z,100823.79
2023-04-16T23:41:04.655Z,100826.23
2023-04-16T23:43:32.615Z,100824.79
2023-04-16T23:46:00.203Z,100826.08
2023-04-16T23:48:30.681Z,100821.69
2023-04-16T23:50:58.297Z,100820.35
2023-04-16T23:53:26.036Z,100820.60
2023-04-16T23:55:54.041Z,100822.18
2023-04-16T23:58:21.608Z,100824.37
